Pagina principale
METAR-TAF:

METAR-TAF

Aeroporti :

Saint-Nazaire, Francia

latitudine: 47-19N, longitudine: 002-10W, altezza: 3 m

Osservazione

Il bollettino è stato emesso 11 minuti fa, alle 17:30 UTC
Vento 14 kt da est/nord-est
Temperature 26°C
Umidità 32%
Pressione 1014 hPa
Visibilità 10 km o più
nessuna nube inferiore a 1500 m e nessun cumulonembo

METAR: LFRZ 311730Z AUTO 07014KT CAVOK 26/08 Q1014 NOSIG

Ora: 19:41 (17:41 UTC)

Previsione

Il bollettino è stato emesso 41 minuti fa, alle 17:00 UTC
Previsione valida dal 31 alle 18 UTC al 01 alle 18 UTC
Vento 10 kt da est/nord-est
Visibilità 10 km o più
nessuna nube inferiore a 1500 m e nessun cumulonembo

TAF: LFRZ 311700Z 3118/0118 07010KT CAVOK

Osservazioni e previsioni meteorologiche di più di 4000 aeroporti (messaggi METAR e TAF).

Le stazioni disponibili sono rappresentate dai dischi gialli e rossi sulla carta.

Puntare il mouse per vedere il nome della stazione.

Clicca sopra per visualizzare le osservazioni e previsioni meteorologiche.

Per cambiare la mappa : fare clic sui pulsanti verdi con una croce nera per ingrandire, il pulsante verde con un trattino per diminuire, o sulla freccia verde per le mappe adiacenti.


METAR-TAF: